createdAt,value
2022-09-01T00:04:11.966Z,0.8
2022-09-01T00:09:11.760Z,0.8
2022-09-01T00:14:29.476Z,0.6
2022-09-01T00:19:11.513Z,0.7
2022-09-01T00:24:11.438Z,0.7
2022-09-01T00:29:11.306Z,0.7
2022-09-01T00:34:11.181Z,0.7
2022-09-01T00:39:11.033Z,1
2022-09-01T00:44:10.933Z,0.6
2022-09-01T00:49:10.773Z,0.9
2022-09-01T00:54:10.705Z,0.8
2022-09-01T00:59:10.525Z,0.6
2022-09-01T01:04:10.471Z,1.2
2022-09-01T01:09:10.308Z,0.6
2022-09-01T01:14:10.230Z,0.6
2022-09-01T01:19:10.105Z,1
2022-09-01T01:24:10.018Z,0.8
2022-09-01T01:29:09.899Z,0.9
2022-09-01T01:34:11.226Z,1
2022-09-01T01:39:09.591Z,0.8
2022-09-01T01:44:09.458Z,1.1
2022-09-01T01:49:09.324Z,0.8
2022-09-01T01:54:09.188Z,1
2022-09-01T01:59:08.987Z,1
2022-09-01T02:04:08.867Z,1
2022-09-01T02:09:08.697Z,1
2022-09-01T02:14:08.548Z,0.8
2022-09-01T02:19:08.379Z,1.1
2022-09-01T02:24:08.193Z,0.9
2022-09-01T02:29:08.030Z,1
2022-09-01T02:34:07.869Z,0.9
2022-09-01T02:39:08.071Z,1
2022-09-01T02:44:07.476Z,0.9
2022-09-01T02:49:07.317Z,0.7
2022-09-01T02:54:07.185Z,0.7
2022-09-01T02:59:06.971Z,0.9
2022-09-01T03:04:06.954Z,0.8
2022-09-01T03:09:06.668Z,1
2022-09-01T03:14:06.499Z,1.3
2022-09-01T03:19:06.336Z,1
2022-09-01T03:24:06.155Z,1.3
2022-09-01T03:29:05.992Z,1.3
2022-09-01T03:34:05.840Z,1.1
2022-09-01T03:39:05.619Z,1.1
2022-09-01T03:44:06.824Z,1.1
2022-09-01T03:49:05.280Z,0.9
2022-09-01T03:54:05.157Z,1.1
2022-09-01T03:59:04.976Z,0.9
2022-09-01T04:04:04.762Z,1.3
2022-09-01T04:09:04.641Z,1
2022-09-01T04:14:04.530Z,1.1
2022-09-01T04:19:04.349Z,1.1
2022-09-01T04:24:04.190Z,1
2022-09-01T04:29:04.012Z,1.1
2022-09-01T04:34:03.750Z,0.9
2022-09-01T04:39:03.551Z,1.6
2022-09-01T04:44:03.294Z,1.2
2022-09-01T04:49:03.087Z,1.1
2022-09-01T04:54:02.777Z,0.7
2022-09-01T04:59:02.555Z,0.7
2022-09-01T05:04:03.895Z,1.3
2022-09-01T05:09:02.039Z,1
2022-09-01T05:14:01.723Z,1.1
2022-09-01T05:19:01.507Z,1.1
2022-09-01T05:24:01.201Z,1
2022-09-01T05:29:00.995Z,1.1
2022-09-01T05:34:00.774Z,1
2022-09-01T05:39:00.549Z,1.1
2022-09-01T05:44:00.993Z,1.2
2022-09-01T05:49:00.110Z,0.9
2022-09-01T05:54:00.143Z,0.9
2022-09-01T05:59:25.555Z,0.9
2022-09-01T06:03:59.388Z,1
2022-09-01T06:08:59.100Z,0.9
2022-09-01T06:13:58.850Z,1.3
2022-09-01T06:18:58.602Z,0.9
2022-09-01T06:23:58.353Z,1
2022-09-01T06:28:58.156Z,0.9
2022-09-01T06:33:57.887Z,1.3
2022-09-01T06:38:57.653Z,1.3
2022-09-01T06:43:58.853Z,0.9
2022-09-01T06:48:57.124Z,1
2022-09-01T06:53:57.266Z,0.9
2022-09-01T06:58:56.652Z,1.2
2022-09-01T07:03:56.394Z,1
2022-09-01T07:09:21.630Z,1.3
2022-09-01T07:14:16.204Z,1.1
2022-09-01T07:18:58.845Z,0.9
2022-09-01T07:24:10.378Z,1.2
2022-09-01T07:29:01.394Z,1.3
2022-09-01T07:33:55.665Z,1.2
2022-09-01T07:43:54.234Z,1.5
2022-09-01T07:49:02.919Z,1.2
2022-09-01T07:53:53.716Z,1.2
2022-09-01T07:58:53.415Z,1.2
2022-09-01T08:03:53.183Z,1
2022-09-01T08:08:56.998Z,1.4
2022-09-01T08:13:52.581Z,1.1
2022-09-01T08:18:52.449Z,1.3
2022-09-01T08:23:52.026Z,1.1
2022-09-01T08:28:55.427Z,2.5
2022-09-01T08:33:51.508Z,2.5
2022-09-01T08:38:51.427Z,1.6
2022-09-01T08:43:50.894Z,1.8
2022-09-01T08:49:24.364Z,1.6
2022-09-01T08:53:50.365Z,1.6
2022-09-01T08:58:50.166Z,1.7
2022-09-01T09:03:50.000Z,1.3
2022-09-01T09:08:49.623Z,1.6
2022-09-01T09:13:49.357Z,1.1
2022-09-01T09:18:56.214Z,1.7
2022-09-01T09:23:48.859Z,1.3
2022-09-01T09:28:48.642Z,1.5
2022-09-01T09:33:52.162Z,2
2022-09-01T09:38:48.181Z,2.2
2022-09-01T09:43:47.927Z,2.1
2022-09-01T09:48:47.751Z,2.8
2022-09-01T09:53:47.914Z,2.3
2022-09-01T09:58:47.290Z,1.8
2022-09-01T10:03:47.112Z,1.3
2022-09-01T10:08:46.917Z,1.8
2022-09-01T10:13:46.663Z,2.1
2022-09-01T10:18:46.478Z,1.4
2022-09-01T10:23:46.281Z,1.4
2022-09-01T10:28:49.474Z,2.4
2022-09-01T10:33:45.885Z,2.2
2022-09-01T10:38:50.506Z,1.6
2022-09-01T10:43:45.435Z,2.4
2022-09-01T10:48:51.878Z,2.2
2022-09-01T10:53:47.032Z,1.9
2022-09-01T11:03:51.454Z,1.8
2022-09-01T11:08:46.701Z,1.8
2022-09-01T11:13:49.039Z,1.8
2022-09-01T11:18:44.046Z,1.9
2022-09-01T11:23:43.897Z,1.5
2022-09-01T11:28:43.704Z,2
2022-09-01T11:33:43.509Z,2
2022-09-01T11:38:43.371Z,2.5
2022-09-01T11:43:43.142Z,1.9
2022-09-01T11:48:42.963Z,2
2022-09-01T11:53:42.755Z,1.5
2022-09-01T11:58:42.627Z,1.9
2022-09-01T12:03:42.563Z,1.9
2022-09-01T12:08:42.217Z,1.5
2022-09-01T12:13:42.079Z,1.4
2022-09-01T12:18:43.091Z,1.5
2022-09-01T12:23:41.721Z,1.4
2022-09-01T12:28:41.655Z,1.3
2022-09-01T12:34:13.346Z,1.4
2022-09-01T12:38:41.250Z,1.6
2022-09-01T12:43:42.246Z,1.7
2022-09-01T12:48:40.955Z,1.4
2022-09-01T12:53:42.561Z,1.7
2022-09-01T12:58:40.568Z,1.1
2022-09-01T13:03:40.398Z,1.5
2022-09-01T13:08:40.206Z,1.3
2022-09-01T13:13:39.983Z,1.2
2022-09-01T13:23:39.642Z,1.3
2022-09-01T13:28:40.909Z,1.5
2022-09-01T13:34:10.904Z,1.5
2022-09-01T13:38:39.135Z,1.3
2022-09-01T13:43:39.036Z,1.3
2022-09-01T13:49:03.341Z,1.3
2022-09-01T13:53:38.632Z,1.1
2022-09-01T13:58:38.411Z,1.2
2022-09-01T14:03:38.237Z,1.3
2022-09-01T14:08:38.058Z,1.1
2022-09-01T14:13:37.899Z,1.4
2022-09-01T14:18:37.684Z,1.5
2022-09-01T14:23:37.498Z,1.3
2022-09-01T14:28:37.344Z,1.4
2022-09-01T14:33:37.233Z,1.2
2022-09-01T14:38:37.018Z,1.1
2022-09-01T14:43:36.880Z,1
2022-09-01T14:48:36.655Z,1.2
2022-09-01T14:53:36.524Z,1.3
2022-09-01T14:58:36.323Z,1
2022-09-01T15:03:36.197Z,1.4
2022-09-01T15:08:36.052Z,1.5
2022-09-01T15:13:35.890Z,1.5
2022-09-01T15:18:35.706Z,1.6
2022-09-01T15:23:35.558Z,1.6
2022-09-01T15:28:35.406Z,1.9
2022-09-01T15:33:35.233Z,1.6
2022-09-01T15:38:35.103Z,1.3
2022-09-01T15:43:34.871Z,1.8
2022-09-01T15:48:34.753Z,2.8
2022-09-01T15:53:34.524Z,1.7
2022-09-01T15:58:50.666Z,1.7
2022-09-01T16:03:34.238Z,1.6
2022-09-01T16:08:34.019Z,1.8
2022-09-01T16:13:33.902Z,1.6
2022-09-01T16:18:33.681Z,1.7
2022-09-01T16:23:33.550Z,1.6
2022-09-01T16:28:33.333Z,1.7
2022-09-01T16:33:33.218Z,1.5
2022-09-01T16:38:32.893Z,1.6
2022-09-01T16:43:32.760Z,2.8
2022-09-01T16:48:32.519Z,1.4
2022-09-01T16:53:32.275Z,1.5
2022-09-01T16:58:32.141Z,1.6
2022-09-01T17:03:37.769Z,1.4
2022-09-01T17:08:31.707Z,1.3
2022-09-01T17:13:31.461Z,1.5
2022-09-01T17:18:31.285Z,1.5
2022-09-01T17:23:31.022Z,1.4
2022-09-01T17:28:30.864Z,1.5
2022-09-01T17:33:30.614Z,1.5
2022-09-01T17:38:30.425Z,1.6
2022-09-01T17:43:30.237Z,1.4
2022-09-01T17:48:29.997Z,1.7
2022-09-01T17:53:29.802Z,1.5
2022-09-01T17:58:29.605Z,1.7
2022-09-01T18:03:29.332Z,1.7
2022-09-01T18:08:30.330Z,1.8
2022-09-01T18:13:49.194Z,1.7
2022-09-01T18:18:28.690Z,1.8
2022-09-01T18:23:29.617Z,1.5
2022-09-01T18:28:28.193Z,1.6
2022-09-01T18:33:30.008Z,2.1
2022-09-01T18:38:27.866Z,1.7
2022-09-01T18:43:27.631Z,1.5
2022-09-01T18:48:27.770Z,1.6
2022-09-01T18:53:27.145Z,1.4
2022-09-01T18:58:26.951Z,1.4
2022-09-01T19:03:26.654Z,1.7
2022-09-01T19:08:26.448Z,1.5
2022-09-01T19:13:26.158Z,1.5
2022-09-01T19:18:25.958Z,1.5
2022-09-01T19:23:25.679Z,1.6
2022-09-01T19:28:25.399Z,1.5
2022-09-01T19:33:25.050Z,1.6
2022-09-01T19:38:28.083Z,1.8
2022-09-01T19:43:24.621Z,1.3
2022-09-01T19:48:24.366Z,1.7
2022-09-01T19:53:24.205Z,1.2
2022-09-01T19:58:23.999Z,1.5
2022-09-01T20:03:23.728Z,1.5
2022-09-01T20:08:23.515Z,1.3
2022-09-01T20:13:23.256Z,1.7
2022-09-01T20:18:22.989Z,1.4
2022-09-01T20:23:22.702Z,1.5
2022-09-01T20:28:22.620Z,1.4
2022-09-01T20:33:22.370Z,1.4
2022-09-01T20:38:21.988Z,1.8
2022-09-01T20:43:21.845Z,1.6
2022-09-01T20:48:21.420Z,1.8
2022-09-01T20:53:21.269Z,1.6
2022-09-01T20:58:20.913Z,1.7
2022-09-01T21:03:20.729Z,1.3
2022-09-01T21:08:20.364Z,1.4
2022-09-01T21:13:24.615Z,1.4
2022-09-01T21:18:19.802Z,1.2
2022-09-01T21:23:19.608Z,1.3
2022-09-01T21:28:19.303Z,1.3
2022-09-01T21:33:19.052Z,1.3
2022-09-01T21:38:20.621Z,1.1
2022-09-01T21:43:18.530Z,1.5
2022-09-01T21:48:18.172Z,1.9
2022-09-01T21:53:17.919Z,1.8
2022-09-01T21:58:17.603Z,1.8
2022-09-01T22:03:17.334Z,1.6
2022-09-01T22:08:16.989Z,1.8
2022-09-01T22:13:16.770Z,1.9
2022-09-01T22:18:16.455Z,1.3
2022-09-01T22:23:16.193Z,1.3
2022-09-01T22:28:15.874Z,1.5
2022-09-01T22:33:15.633Z,1.4
2022-09-01T22:38:15.420Z,1.1
2022-09-01T22:43:15.063Z,1.1
2022-09-01T22:48:14.831Z,1.1
2022-09-01T22:53:14.538Z,1.1
2022-09-01T22:58:14.302Z,1.5
2022-09-01T23:03:14.042Z,1
2022-09-01T23:08:13.787Z,1
2022-09-01T23:13:13.542Z,1.3
2022-09-01T23:18:13.233Z,1.1
2022-09-01T23:23:13.074Z,1
2022-09-01T23:28:12.691Z,1.1
2022-09-01T23:33:12.537Z,1
2022-09-01T23:38:12.133Z,1.3
2022-09-01T23:43:11.884Z,0.9
2022-09-01T23:48:11.558Z,0.9
2022-09-01T23:53:11.348Z,1.1
2022-09-01T23:58:11.091Z,0.9
